sensor_id;sensor_type;location;lat;lon;timestamp;temperature;humidity
25906;DHT22;13713;52.552;13.204;2023-03-14T00:01:23;14.60;75.20
25906;DHT22;13713;52.552;13.204;2023-03-14T00:03:50;14.50;75.20
25906;DHT22;13713;52.552;13.204;2023-03-14T00:06:16;14.60;75.20
25906;DHT22;13713;52.552;13.204;2023-03-14T00:08:43;14.50;76.00
25906;DHT22;13713;52.552;13.204;2023-03-14T00:11:20;14.50;75.20
25906;DHT22;13713;52.552;13.204;2023-03-14T00:13:52;14.60;75.30
25906;DHT22;13713;52.552;13.204;2023-03-14T00:16:19;14.50;75.30
25906;DHT22;13713;52.552;13.204;2023-03-14T00:18:45;14.50;75.30
25906;DHT22;13713;52.552;13.204;2023-03-14T00:21:11;14.50;75.20
25906;DHT22;13713;52.552;13.204;2023-03-14T00:23:39;14.50;75.30
25906;DHT22;13713;52.552;13.204;2023-03-14T00:26:13;14.50;75.40
25906;DHT22;13713;52.552;13.204;2023-03-14T00:28:40;14.50;76.10
25906;DHT22;13713;52.552;13.204;2023-03-14T00:31:07;14.50;75.40
25906;DHT22;13713;52.552;13.204;2023-03-14T00:33:34;14.50;75.40
25906;DHT22;13713;52.552;13.204;2023-03-14T00:36:13;14.50;75.40
25906;DHT22;13713;52.552;13.204;2023-03-14T00:38:41;14.50;75.40
25906;DHT22;13713;52.552;13.204;2023-03-14T00:41:09;14.50;75.50
25906;DHT22;13713;52.552;13.204;2023-03-14T00:43:35;14.50;75.40
25906;DHT22;13713;52.552;13.204;2023-03-14T00:46:01;14.50;75.50
25906;DHT22;13713;52.552;13.204;2023-03-14T00:48:28;14.50;75.50
25906;DHT22;13713;52.552;13.204;2023-03-14T00:50:54;14.50;75.50
25906;DHT22;13713;52.552;13.204;2023-03-14T00:53:19;14.50;75.40
25906;DHT22;13713;52.552;13.204;2023-03-14T00:55:45;14.50;75.50
25906;DHT22;13713;52.552;13.204;2023-03-14T00:58:13;14.40;76.20
25906;DHT22;13713;52.552;13.204;2023-03-14T01:00:39;14.50;75.50
25906;DHT22;13713;52.552;13.204;2023-03-14T01:03:06;14.40;75.40
25906;DHT22;13713;52.552;13.204;2023-03-14T01:05:32;14.40;75.60
25906;DHT22;13713;52.552;13.204;2023-03-14T01:07:58;14.40;75.40
25906;DHT22;13713;52.552;13.204;2023-03-14T01:10:25;14.40;75.50
25906;DHT22;13713;52.552;13.204;2023-03-14T01:12:51;14.40;75.50
25906;DHT22;13713;52.552;13.204;2023-03-14T01:15:17;14.40;75.40
25906;DHT22;13713;52.552;13.204;2023-03-14T01:17:43;14.40;75.40
25906;DHT22;13713;52.552;13.204;2023-03-14T01:20:11;14.40;75.50
25906;DHT22;13713;52.552;13.204;2023-03-14T01:22:38;14.40;75.40
25906;DHT22;13713;52.552;13.204;2023-03-14T01:25:14;14.40;75.40
25906;DHT22;13713;52.552;13.204;2023-03-14T01:27:40;14.40;75.60
25906;DHT22;13713;52.552;13.204;2023-03-14T01:30:07;14.40;75.60
25906;DHT22;13713;52.552;13.204;2023-03-14T01:32:34;14.40;75.60
25906;DHT22;13713;52.552;13.204;2023-03-14T01:34:59;14.40;75.50
25906;DHT22;13713;52.552;13.204;2023-03-14T01:37:25;14.40;75.60
25906;DHT22;13713;52.552;13.204;2023-03-14T01:39:51;14.40;75.50
25906;DHT22;13713;52.552;13.204;2023-03-14T01:42:19;14.40;75.50
25906;DHT22;13713;52.552;13.204;2023-03-14T01:44:48;14.40;75.50
25906;DHT22;13713;52.552;13.204;2023-03-14T01:47:15;14.40;75.60
25906;DHT22;13713;52.552;13.204;2023-03-14T01:49:43;14.40;75.60
25906;DHT22;13713;52.552;13.204;2023-03-14T01:52:13;14.40;75.50
25906;DHT22;13713;52.552;13.204;2023-03-14T01:54:43;14.40;75.60
25906;DHT22;13713;52.552;13.204;2023-03-14T01:57:19;14.40;75.60
25906;DHT22;13713;52.552;13.204;2023-03-14T01:59:52;14.40;75.60
25906;DHT22;13713;52.552;13.204;2023-03-14T02:02:19;14.40;75.60
25906;DHT22;13713;52.552;13.204;2023-03-14T02:04:45;14.40;75.60
25906;DHT22;13713;52.552;13.204;2023-03-14T02:07:18;14.40;76.40
25906;DHT22;13713;52.552;13.204;2023-03-14T02:09:56;14.40;75.60
25906;DHT22;13713;52.552;13.204;2023-03-14T02:12:26;14.40;75.70
25906;DHT22;13713;52.552;13.204;2023-03-14T02:15:24;14.40;75.70
25906;DHT22;13713;52.552;13.204;2023-03-14T02:17:58;14.30;75.60
25906;DHT22;13713;52.552;13.204;2023-03-14T02:21:30;14.30;75.60
25906;DHT22;13713;52.552;13.204;2023-03-14T02:26:34;14.30;75.60
25906;DHT22;13713;52.552;13.204;2023-03-14T02:29:02;14.40;75.70
25906;DHT22;13713;52.552;13.204;2023-03-14T02:31:29;14.30;75.60
25906;DHT22;13713;52.552;13.204;2023-03-14T02:33:55;14.30;75.80
25906;DHT22;13713;52.552;13.204;2023-03-14T02:36:23;14.30;75.70
25906;DHT22;13713;52.552;13.204;2023-03-14T02:39:01;14.30;75.80
25906;DHT22;13713;52.552;13.204;2023-03-14T02:41:30;14.30;75.80
25906;DHT22;13713;52.552;13.204;2023-03-14T02:44:00;14.30;75.70
25906;DHT22;13713;52.552;13.204;2023-03-14T02:46:27;14.30;75.70
25906;DHT22;13713;52.552;13.204;2023-03-14T02:49:14;14.30;75.80
25906;DHT22;13713;52.552;13.204;2023-03-14T02:51:40;14.30;75.80
25906;DHT22;13713;52.552;13.204;2023-03-14T02:54:07;14.30;75.80
25906;DHT22;13713;52.552;13.204;2023-03-14T02:56:33;14.30;75.70
25906;DHT22;13713;52.552;13.204;2023-03-14T02:59:03;14.30;76.50
25906;DHT22;13713;52.552;13.204;2023-03-14T03:01:41;14.30;75.80
25906;DHT22;13713;52.552;13.204;2023-03-14T03:04:07;14.20;75.70
25906;DHT22;13713;52.552;13.204;2023-03-14T03:06:33;14.30;75.80
25906;DHT22;13713;52.552;13.204;2023-03-14T03:09:00;14.30;75.80
25906;DHT22;13713;52.552;13.204;2023-03-14T03:11:25;14.30;75.80
25906;DHT22;13713;52.552;13.204;2023-03-14T03:13:51;14.30;75.80
25906;DHT22;13713;52.552;13.204;2023-03-14T03:16:18;14.30;75.80
25906;DHT22;13713;52.552;13.204;2023-03-14T03:18:43;14.30;75.90
25906;DHT22;13713;52.552;13.204;2023-03-14T03:21:09;14.30;75.80
25906;DHT22;13713;52.552;13.204;2023-03-14T03:23:35;14.30;75.90
25906;DHT22;13713;52.552;13.204;2023-03-14T03:26:00;14.30;75.90
25906;DHT22;13713;52.552;13.204;2023-03-14T03:28:28;14.20;75.80
25906;DHT22;13713;52.552;13.204;2023-03-14T03:30:55;14.30;75.90
25906;DHT22;13713;52.552;13.204;2023-03-14T03:33:21;14.20;75.80
25906;DHT22;13713;52.552;13.204;2023-03-14T03:35:50;14.20;75.80
25906;DHT22;13713;52.552;13.204;2023-03-14T03:38:22;14.20;75.80
25906;DHT22;13713;52.552;13.204;2023-03-14T03:40:50;14.20;75.80
25906;DHT22;13713;52.552;13.204;2023-03-14T03:43:16;14.20;75.80
25906;DHT22;13713;52.552;13.204;2023-03-14T03:45:45;14.20;75.90
25906;DHT22;13713;52.552;13.204;2023-03-14T03:48:11;14.20;75.80
25906;DHT22;13713;52.552;13.204;2023-03-14T03:50:37;14.20;75.80
25906;DHT22;13713;52.552;13.204;2023-03-14T03:53:03;14.30;76.00
25906;DHT22;13713;52.552;13.204;2023-03-14T03:55:28;14.20;75.90
25906;DHT22;13713;52.552;13.204;2023-03-14T03:57:54;14.20;75.90
25906;DHT22;13713;52.552;13.204;2023-03-14T04:00:20;14.20;75.90
25906;DHT22;13713;52.552;13.204;2023-03-14T04:02:47;14.20;75.80
25906;DHT22;13713;52.552;13.204;2023-03-14T04:05:15;14.20;76.60
25906;DHT22;13713;52.552;13.204;2023-03-14T04:07:48;14.20;75.90
25906;DHT22;13713;52.552;13.204;2023-03-14T04:10:19;14.20;75.90
25906;DHT22;13713;52.552;13.204;2023-03-14T04:13:01;14.20;76.30
25906;DHT22;13713;52.552;13.204;2023-03-14T04:15:29;14.20;76.10
25906;DHT22;13713;52.552;13.204;2023-03-14T04:17:58;14.20;76.10
25906;DHT22;13713;52.552;13.204;2023-03-14T04:20:24;14.20;75.90
25906;DHT22;13713;52.552;13.204;2023-03-14T04:22:51;14.20;75.90
25906;DHT22;13713;52.552;13.204;2023-03-14T04:25:17;14.20;75.80
25906;DHT22;13713;52.552;13.204;2023-03-14T04:27:49;14.20;75.90
25906;DHT22;13713;52.552;13.204;2023-03-14T04:30:19;14.20;75.90
25906;DHT22;13713;52.552;13.204;2023-03-14T04:32:53;14.20;75.80
25906;DHT22;13713;52.552;13.204;2023-03-14T04:35:22;14.20;75.90
25906;DHT22;13713;52.552;13.204;2023-03-14T04:37:49;14.20;75.80
25906;DHT22;13713;52.552;13.204;2023-03-14T04:40:18;14.20;76.30
25906;DHT22;13713;52.552;13.204;2023-03-14T04:42:45;14.20;75.90
25906;DHT22;13713;52.552;13.204;2023-03-14T04:45:11;14.20;76.00
25906;DHT22;13713;52.552;13.204;2023-03-14T04:47:38;14.20;76.10
25906;DHT22;13713;52.552;13.204;2023-03-14T04:50:04;14.20;75.90
25906;DHT22;13713;52.552;13.204;2023-03-14T04:52:30;14.20;75.90
25906;DHT22;13713;52.552;13.204;2023-03-14T04:54:56;14.20;75.80
25906;DHT22;13713;52.552;13.204;2023-03-14T04:57:24;14.20;75.80
25906;DHT22;13713;52.552;13.204;2023-03-14T04:59:50;14.20;75.80
25906;DHT22;13713;52.552;13.204;2023-03-14T05:02:35;14.20;75.80
25906;DHT22;13713;52.552;13.204;2023-03-14T05:05:16;14.20;76.50
25906;DHT22;13713;52.552;13.204;2023-03-14T05:08:05;14.20;75.80
25906;DHT22;13713;52.552;13.204;2023-03-14T05:10:52;14.20;75.80
25906;DHT22;13713;52.552;13.204;2023-03-14T05:13:32;14.20;75.80
25906;DHT22;13713;52.552;13.204;2023-03-14T05:16:16;14.20;75.70
25906;DHT22;13713;52.552;13.204;2023-03-14T05:19:00;14.30;75.70
25906;DHT22;13713;52.552;13.204;2023-03-14T05:21:45;14.30;75.80
25906;DHT22;13713;52.552;13.204;2023-03-14T05:24:29;14.30;75.80
25906;DHT22;13713;52.552;13.204;2023-03-14T05:27:06;14.30;75.80
25906;DHT22;13713;52.552;13.204;2023-03-14T05:29:53;14.30;75.90
25906;DHT22;13713;52.552;13.204;2023-03-14T05:32:33;14.30;75.80
25906;DHT22;13713;52.552;13.204;2023-03-14T05:35:11;14.30;75.90
25906;DHT22;13713;52.552;13.204;2023-03-14T05:37:42;14.30;75.80
25906;DHT22;13713;52.552;13.204;2023-03-14T05:40:26;14.30;75.70
25906;DHT22;13713;52.552;13.204;2023-03-14T05:43:03;14.30;75.70
25906;DHT22;13713;52.552;13.204;2023-03-14T05:45:50;14.30;75.70
25906;DHT22;13713;52.552;13.204;2023-03-14T05:48:30;14.30;75.80
25906;DHT22;13713;52.552;13.204;2023-03-14T05:51:21;14.30;75.70
25906;DHT22;13713;52.552;13.204;2023-03-14T05:54:10;14.30;75.60
25906;DHT22;13713;52.552;13.204;2023-03-14T05:56:56;14.40;75.80
25906;DHT22;13713;52.552;13.204;2023-03-14T05:59:44;14.30;75.60
25906;DHT22;13713;52.552;13.204;2023-03-14T06:02:28;14.40;75.70
25906;DHT22;13713;52.552;13.204;2023-03-14T06:05:02;14.40;75.60
25906;DHT22;13713;52.552;13.204;2023-03-14T06:07:28;14.40;75.70
25906;DHT22;13713;52.552;13.204;2023-03-14T06:09:55;14.40;75.70
25906;DHT22;13713;52.552;13.204;2023-03-14T06:12:21;14.40;75.60
25906;DHT22;13713;52.552;13.204;2023-03-14T06:14:47;14.50;76.00
25906;DHT22;13713;52.552;13.204;2023-03-14T06:17:13;14.50;76.10
25906;DHT22;13713;52.552;13.204;2023-03-14T06:19:47;14.50;76.00
25906;DHT22;13713;52.552;13.204;2023-03-14T06:22:13;14.50;75.90
25906;DHT22;13713;52.552;13.204;2023-03-14T06:24:40;14.60;76.30
25906;DHT22;13713;52.552;13.204;2023-03-14T06:27:06;14.50;76.50
25906;DHT22;13713;52.552;13.204;2023-03-14T06:29:32;14.50;75.90
25906;DHT22;13713;52.552;13.204;2023-03-14T06:31:57;14.50;76.00
25906;DHT22;13713;52.552;13.204;2023-03-14T06:34:23;14.60;75.80
25906;DHT22;13713;52.552;13.204;2023-03-14T06:36:49;14.60;75.70
25906;DHT22;13713;52.552;13.204;2023-03-14T06:39:15;14.60;75.70
25906;DHT22;13713;52.552;13.204;2023-03-14T06:41:44;14.60;75.60
25906;DHT22;13713;52.552;13.204;2023-03-14T06:44:10;14.60;75.60
25906;DHT22;13713;52.552;13.204;2023-03-14T06:46:37;14.60;76.50
25906;DHT22;13713;52.552;13.204;2023-03-14T06:49:03;14.60;76.50
25906;DHT22;13713;52.552;13.204;2023-03-14T06:51:29;14.60;75.60
25906;DHT22;13713;52.552;13.204;2023-03-14T06:53:54;14.70;75.60
25906;DHT22;13713;52.552;13.204;2023-03-14T06:56:24;14.70;75.50
25906;DHT22;13713;52.552;13.204;2023-03-14T06:58:50;14.70;75.70
25906;DHT22;13713;52.552;13.204;2023-03-14T07:01:23;14.70;75.80
25906;DHT22;13713;52.552;13.204;2023-03-14T07:03:51;14.70;75.70
25906;DHT22;13713;52.552;13.204;2023-03-14T07:06:16;14.80;75.50
25906;DHT22;13713;52.552;13.204;2023-03-14T07:08:42;14.80;75.50
25906;DHT22;13713;52.552;13.204;2023-03-14T07:11:08;14.80;75.60
25906;DHT22;13713;52.552;13.204;2023-03-14T07:13:37;14.80;75.50
25906;DHT22;13713;52.552;13.204;2023-03-14T07:16:06;14.90;75.90
25906;DHT22;13713;52.552;13.204;2023-03-14T07:18:33;14.90;75.70
25906;DHT22;13713;52.552;13.204;2023-03-14T07:21:03;14.90;75.60
25906;DHT22;13713;52.552;13.204;2023-03-14T07:23:29;15.00;75.60
25906;DHT22;13713;52.552;13.204;2023-03-14T07:25:56;15.00;75.50
25906;DHT22;13713;52.552;13.204;2023-03-14T07:28:24;15.00;75.40
25906;DHT22;13713;52.552;13.204;2023-03-14T07:30:56;15.10;76.10
25906;DHT22;13713;52.552;13.204;2023-03-14T07:33:27;15.10;75.80
25906;DHT22;13713;52.552;13.204;2023-03-14T07:35:53;15.20;75.70
25906;DHT22;13713;52.552;13.204;2023-03-14T07:38:19;15.20;75.50
25906;DHT22;13713;52.552;13.204;2023-03-14T07:41:05;15.30;75.50
25906;DHT22;13713;52.552;13.204;2023-03-14T07:43:34;15.30;75.50
25906;DHT22;13713;52.552;13.204;2023-03-14T07:46:00;15.40;75.30
25906;DHT22;13713;52.552;13.204;2023-03-14T07:48:26;15.40;75.20
25906;DHT22;13713;52.552;13.204;2023-03-14T07:50:53;15.40;74.70
25906;DHT22;13713;52.552;13.204;2023-03-14T07:53:20;15.40;74.00
25906;DHT22;13713;52.552;13.204;2023-03-14T07:55:46;15.40;73.50
25906;DHT22;13713;52.552;13.204;2023-03-14T07:58:13;15.40;73.40
25906;DHT22;13713;52.552;13.204;2023-03-14T08:00:39;15.40;73.20
25906;DHT22;13713;52.552;13.204;2023-03-14T08:03:05;15.40;73.00
25906;DHT22;13713;52.552;13.204;2023-03-14T08:05:34;15.40;72.90
25906;DHT22;13713;52.552;13.204;2023-03-14T08:08:00;15.40;72.80
25906;DHT22;13713;52.552;13.204;2023-03-14T08:10:25;15.40;72.70
25906;DHT22;13713;52.552;13.204;2023-03-14T08:12:54;15.40;72.70
25906;DHT22;13713;52.552;13.204;2023-03-14T08:15:21;15.30;72.60
25906;DHT22;13713;52.552;13.204;2023-03-14T08:17:47;15.30;72.60
25906;DHT22;13713;52.552;13.204;2023-03-14T08:20:20;15.30;72.70
25906;DHT22;13713;52.552;13.204;2023-03-14T08:22:46;15.40;72.80
25906;DHT22;13713;52.552;13.204;2023-03-14T08:25:11;15.30;72.80
25906;DHT22;13713;52.552;13.204;2023-03-14T08:27:37;15.40;72.90
25906;DHT22;13713;52.552;13.204;2023-03-14T08:30:10;15.30;72.80
25906;DHT22;13713;52.552;13.204;2023-03-14T08:32:36;15.40;73.00
25906;DHT22;13713;52.552;13.204;2023-03-14T08:35:03;15.40;72.80
25906;DHT22;13713;52.552;13.204;2023-03-14T08:37:31;15.40;72.60
25906;DHT22;13713;52.552;13.204;2023-03-14T08:39:57;15.40;72.60
25906;DHT22;13713;52.552;13.204;2023-03-14T08:42:23;15.40;72.50
25906;DHT22;13713;52.552;13.204;2023-03-14T08:44:50;15.40;72.30
25906;DHT22;13713;52.552;13.204;2023-03-14T08:47:16;15.50;72.40
25906;DHT22;13713;52.552;13.204;2023-03-14T08:49:42;15.40;72.30
25906;DHT22;13713;52.552;13.204;2023-03-14T08:52:08;15.40;72.30
25906;DHT22;13713;52.552;13.204;2023-03-14T08:54:34;15.50;72.40
25906;DHT22;13713;52.552;13.204;2023-03-14T08:56:59;15.40;72.50
25906;DHT22;13713;52.552;13.204;2023-03-14T08:59:25;15.40;72.70
25906;DHT22;13713;52.552;13.204;2023-03-14T09:01:51;15.40;72.70
25906;DHT22;13713;52.552;13.204;2023-03-14T09:04:17;15.50;72.80
25906;DHT22;13713;52.552;13.204;2023-03-14T09:06:43;15.50;72.90
25906;DHT22;13713;52.552;13.204;2023-03-14T09:09:08;15.50;72.90
25906;DHT22;13713;52.552;13.204;2023-03-14T09:11:34;15.50;72.90
25906;DHT22;13713;52.552;13.204;2023-03-14T09:14:00;15.60;72.90
25906;DHT22;13713;52.552;13.204;2023-03-14T09:16:26;15.60;72.90
25906;DHT22;13713;52.552;13.204;2023-03-14T09:18:52;15.60;73.00
25906;DHT22;13713;52.552;13.204;2023-03-14T09:21:20;15.60;72.90
25906;DHT22;13713;52.552;13.204;2023-03-14T09:23:46;15.70;72.90
25906;DHT22;13713;52.552;13.204;2023-03-14T09:26:12;15.70;72.90
25906;DHT22;13713;52.552;13.204;2023-03-14T09:28:38;15.70;72.90
25906;DHT22;13713;52.552;13.204;2023-03-14T09:31:15;15.70;72.90
25906;DHT22;13713;52.552;13.204;2023-03-14T09:33:41;15.70;72.90
25906;DHT22;13713;52.552;13.204;2023-03-14T09:36:07;15.80;72.90
25906;DHT22;13713;52.552;13.204;2023-03-14T09:38:33;15.80;73.00
25906;DHT22;13713;52.552;13.204;2023-03-14T09:41:01;15.80;73.30
25906;DHT22;13713;52.552;13.204;2023-03-14T09:43:30;15.80;73.00
25906;DHT22;13713;52.552;13.204;2023-03-14T09:45:58;15.80;72.90
25906;DHT22;13713;52.552;13.204;2023-03-14T09:48:29;15.90;72.90
25906;DHT22;13713;52.552;13.204;2023-03-14T09:50:58;15.90;72.80
25906;DHT22;13713;52.552;13.204;2023-03-14T09:53:27;15.90;72.60
25906;DHT22;13713;52.552;13.204;2023-03-14T09:55:54;15.90;72.30
25906;DHT22;13713;52.552;13.204;2023-03-14T09:58:22;15.90;72.30
25906;DHT22;13713;52.552;13.204;2023-03-14T10:00:56;15.90;72.30
25906;DHT22;13713;52.552;13.204;2023-03-14T10:03:32;15.90;72.20
25906;DHT22;13713;52.552;13.204;2023-03-14T10:05:59;15.90;72.30
25906;DHT22;13713;52.552;13.204;2023-03-14T10:08:25;15.90;72.10
25906;DHT22;13713;52.552;13.204;2023-03-14T10:10:51;15.90;72.00
25906;DHT22;13713;52.552;13.204;2023-03-14T10:13:24;15.90;72.00
25906;DHT22;13713;52.552;13.204;2023-03-14T10:18:18;16.00;71.60
25906;DHT22;13713;52.552;13.204;2023-03-14T10:20:47;15.90;71.70
25906;DHT22;13713;52.552;13.204;2023-03-14T10:25:44;15.90;71.90
25906;DHT22;13713;52.552;13.204;2023-03-14T10:28:44;15.90;71.90
25906;DHT22;13713;52.552;13.204;2023-03-14T10:31:10;16.00;72.10
25906;DHT22;13713;52.552;13.204;2023-03-14T10:33:37;16.00;72.80
25906;DHT22;13713;52.552;13.204;2023-03-14T10:36:22;15.90;72.30
25906;DHT22;13713;52.552;13.204;2023-03-14T10:38:48;16.00;72.30
25906;DHT22;13713;52.552;13.204;2023-03-14T10:43:42;16.00;72.10
25906;DHT22;13713;52.552;13.204;2023-03-14T10:46:14;16.00;72.00
25906;DHT22;13713;52.552;13.204;2023-03-14T10:49:05;16.00;71.70
25906;DHT22;13713;52.552;13.204;2023-03-14T10:51:32;16.00;71.20
25906;DHT22;13713;52.552;13.204;2023-03-14T10:54:01;16.00;70.70
25906;DHT22;13713;52.552;13.204;2023-03-14T10:56:34;16.00;70.40
25906;DHT22;13713;52.552;13.204;2023-03-14T10:59:00;16.00;70.40
25906;DHT22;13713;52.552;13.204;2023-03-14T11:01:37;16.00;70.30
25906;DHT22;13713;52.552;13.204;2023-03-14T11:04:45;16.00;70.40
25906;DHT22;13713;52.552;13.204;2023-03-14T11:07:48;16.00;70.50
25906;DHT22;13713;52.552;13.204;2023-03-14T11:10:34;15.90;70.30
25906;DHT22;13713;52.552;13.204;2023-03-14T11:15:58;15.90;70.20
25906;DHT22;13713;52.552;13.204;2023-03-14T11:18:43;15.90;69.90
25906;DHT22;13713;52.552;13.204;2023-03-14T11:21:13;15.90;70.00
25906;DHT22;13713;52.552;13.204;2023-03-14T11:26:48;15.90;69.50
25906;DHT22;13713;52.552;13.204;2023-03-14T11:29:33;15.90;69.60
25906;DHT22;13713;52.552;13.204;2023-03-14T11:32:08;15.90;70.00
25906;DHT22;13713;52.552;13.204;2023-03-14T11:34:44;15.90;70.50
25906;DHT22;13713;52.552;13.204;2023-03-14T11:37:32;15.90;70.50
25906;DHT22;13713;52.552;13.204;2023-03-14T11:40:13;15.90;70.40
25906;DHT22;13713;52.552;13.204;2023-03-14T11:42:41;15.90;70.70
25906;DHT22;13713;52.552;13.204;2023-03-14T11:45:18;15.90;70.50
25906;DHT22;13713;52.552;13.204;2023-03-14T11:47:47;15.90;70.40
25906;DHT22;13713;52.552;13.204;2023-03-14T11:50:24;15.90;70.40
25906;DHT22;13713;52.552;13.204;2023-03-14T11:53:09;15.90;70.50
25906;DHT22;13713;52.552;13.204;2023-03-14T11:55:39;15.90;70.60
25906;DHT22;13713;52.552;13.204;2023-03-14T12:00:41;15.90;70.90
25906;DHT22;13713;52.552;13.204;2023-03-14T12:03:20;15.90;70.90
25906;DHT22;13713;52.552;13.204;2023-03-14T12:08:44;15.90;70.60
25906;DHT22;13713;52.552;13.204;2023-03-14T12:11:35;15.90;70.60
25906;DHT22;13713;52.552;13.204;2023-03-14T12:14:25;15.90;70.50
25906;DHT22;13713;52.552;13.204;2023-03-14T12:17:21;15.90;70.40
25906;DHT22;13713;52.552;13.204;2023-03-14T12:19:49;15.90;70.50
25906;DHT22;13713;52.552;13.204;2023-03-14T12:22:30;15.90;70.40
25906;DHT22;13713;52.552;13.204;2023-03-14T12:25:06;15.90;70.40
25906;DHT22;13713;52.552;13.204;2023-03-14T12:30:41;15.90;70.60
25906;DHT22;13713;52.552;13.204;2023-03-14T12:35:42;15.90;70.70
25906;DHT22;13713;52.552;13.204;2023-03-14T12:38:32;15.90;70.80
25906;DHT22;13713;52.552;13.204;2023-03-14T12:44:48;15.90;70.70
25906;DHT22;13713;52.552;13.204;2023-03-14T12:49:47;15.90;70.80
25906;DHT22;13713;52.552;13.204;2023-03-14T12:52:20;15.90;70.90
25906;DHT22;13713;52.552;13.204;2023-03-14T12:57:18;15.90;70.90
25906;DHT22;13713;52.552;13.204;2023-03-14T12:59:51;15.90;71.10
25906;DHT22;13713;52.552;13.204;2023-03-14T13:05:05;15.90;71.10
25906;DHT22;13713;52.552;13.204;2023-03-14T13:15:39;15.90;71.20
25906;DHT22;13713;52.552;13.204;2023-03-14T13:18:17;15.90;71.30
25906;DHT22;13713;52.552;13.204;2023-03-14T13:20:52;15.90;71.50
25906;DHT22;13713;52.552;13.204;2023-03-14T13:23:26;15.90;71.50
25906;DHT22;13713;52.552;13.204;2023-03-14T13:25:53;15.90;71.50
25906;DHT22;13713;52.552;13.204;2023-03-14T13:28:19;15.90;71.60
25906;DHT22;13713;52.552;13.204;2023-03-14T13:30:48;15.90;72.40
25906;DHT22;13713;52.552;13.204;2023-03-14T13:33:20;15.90;71.70
25906;DHT22;13713;52.552;13.204;2023-03-14T13:36:06;15.90;72.00
25906;DHT22;13713;52.552;13.204;2023-03-14T13:38:35;15.90;72.00
25906;DHT22;13713;52.552;13.204;2023-03-14T13:41:05;15.90;72.10
25906;DHT22;13713;52.552;13.204;2023-03-14T13:43:40;15.90;71.90
25906;DHT22;13713;52.552;13.204;2023-03-14T13:48:52;15.90;72.00
25906;DHT22;13713;52.552;13.204;2023-03-14T13:51:20;15.90;72.00
25906;DHT22;13713;52.552;13.204;2023-03-14T13:53:50;16.00;72.10
25906;DHT22;13713;52.552;13.204;2023-03-14T13:56:21;16.00;72.00
25906;DHT22;13713;52.552;13.204;2023-03-14T13:58:48;16.00;72.20
25906;DHT22;13713;52.552;13.204;2023-03-14T14:01:18;16.00;73.20
25906;DHT22;13713;52.552;13.204;2023-03-14T14:03:47;16.00;72.30
25906;DHT22;13713;52.552;13.204;2023-03-14T14:06:47;16.00;73.00
25906;DHT22;13713;52.552;13.204;2023-03-14T14:09:19;16.00;72.40
25906;DHT22;13713;52.552;13.204;2023-03-14T14:11:50;16.00;72.30
25906;DHT22;13713;52.552;13.204;2023-03-14T14:14:28;16.10;72.30
25906;DHT22;13713;52.552;13.204;2023-03-14T14:16:55;16.10;72.30
25906;DHT22;13713;52.552;13.204;2023-03-14T14:19:25;16.00;73.20
25906;DHT22;13713;52.552;13.204;2023-03-14T14:21:53;15.90;73.20
25906;DHT22;13713;52.552;13.204;2023-03-14T14:24:21;15.90;73.30
25906;DHT22;13713;52.552;13.204;2023-03-14T14:26:59;15.80;73.30
25906;DHT22;13713;52.552;13.204;2023-03-14T14:29:27;15.80;73.50
25906;DHT22;13713;52.552;13.204;2023-03-14T14:32:14;15.70;73.50
25906;DHT22;13713;52.552;13.204;2023-03-14T14:34:59;15.70;73.50
25906;DHT22;13713;52.552;13.204;2023-03-14T14:39:57;15.70;73.80
25906;DHT22;13713;52.552;13.204;2023-03-14T14:42:30;15.70;74.10
25906;DHT22;13713;52.552;13.204;2023-03-14T14:44:57;15.70;74.70
25906;DHT22;13713;52.552;13.204;2023-03-14T14:47:25;15.70;75.30
25906;DHT22;13713;52.552;13.204;2023-03-14T14:49:53;15.70;75.30
25906;DHT22;13713;52.552;13.204;2023-03-14T14:52:27;15.70;75.30
25906;DHT22;13713;52.552;13.204;2023-03-14T14:54:59;15.70;75.40
25906;DHT22;13713;52.552;13.204;2023-03-14T14:57:27;15.70;75.80
25906;DHT22;13713;52.552;13.204;2023-03-14T15:00:01;15.70;76.50
25906;DHT22;13713;52.552;13.204;2023-03-14T15:02:52;15.70;75.70
25906;DHT22;13713;52.552;13.204;2023-03-14T15:05:23;15.70;75.80
25906;DHT22;13713;52.552;13.204;2023-03-14T15:07:50;15.70;75.80
25906;DHT22;13713;52.552;13.204;2023-03-14T15:10:19;15.70;75.70
25906;DHT22;13713;52.552;13.204;2023-03-14T15:12:45;15.70;75.30
25906;DHT22;13713;52.552;13.204;2023-03-14T15:15:13;15.70;74.60
25906;DHT22;13713;52.552;13.204;2023-03-14T15:17:39;15.60;74.70
25906;DHT22;13713;52.552;13.204;2023-03-14T15:20:10;15.50;73.50
25906;DHT22;13713;52.552;13.204;2023-03-14T15:22:39;15.50;73.40
25906;DHT22;13713;52.552;13.204;2023-03-14T15:25:05;15.40;72.20
25906;DHT22;13713;52.552;13.204;2023-03-14T15:27:31;15.40;72.10
25906;DHT22;13713;52.552;13.204;2023-03-14T15:29:58;15.30;71.40
25906;DHT22;13713;52.552;13.204;2023-03-14T15:32:24;15.20;70.90
25906;DHT22;13713;52.552;13.204;2023-03-14T15:34:54;15.20;70.40
25906;DHT22;13713;52.552;13.204;2023-03-14T15:37:20;15.10;70.10
25906;DHT22;13713;52.552;13.204;2023-03-14T15:39:47;15.10;69.60
25906;DHT22;13713;52.552;13.204;2023-03-14T15:42:12;15.00;69.50
25906;DHT22;13713;52.552;13.204;2023-03-14T15:44:38;15.00;69.90
25906;DHT22;13713;52.552;13.204;2023-03-14T15:47:05;15.00;69.80
25906;DHT22;13713;52.552;13.204;2023-03-14T15:49:31;14.90;69.80
25906;DHT22;13713;52.552;13.204;2023-03-14T15:51:57;15.00;69.90
25906;DHT22;13713;52.552;13.204;2023-03-14T15:54:24;14.90;69.90
25906;DHT22;13713;52.552;13.204;2023-03-14T15:56:54;14.90;69.90
25906;DHT22;13713;52.552;13.204;2023-03-14T15:59:21;14.90;70.10
25906;DHT22;13713;52.552;13.204;2023-03-14T16:01:47;15.00;70.20
25906;DHT22;13713;52.552;13.204;2023-03-14T16:04:16;15.00;70.20
25906;DHT22;13713;52.552;13.204;2023-03-14T16:06:42;15.00;70.40
25906;DHT22;13713;52.552;13.204;2023-03-14T16:09:10;14.90;70.40
25906;DHT22;13713;52.552;13.204;2023-03-14T16:11:36;15.00;70.50
25906;DHT22;13713;52.552;13.204;2023-03-14T16:14:02;15.00;70.60
25906;DHT22;13713;52.552;13.204;2023-03-14T16:16:28;15.00;70.60
25906;DHT22;13713;52.552;13.204;2023-03-14T16:18:54;15.00;70.60
25906;DHT22;13713;52.552;13.204;2023-03-14T16:21:20;15.00;70.70
25906;DHT22;13713;52.552;13.204;2023-03-14T16:23:46;15.00;70.70
25906;DHT22;13713;52.552;13.204;2023-03-14T16:26:18;15.00;70.60
25906;DHT22;13713;52.552;13.204;2023-03-14T16:28:46;15.00;70.60